Aviation Digital Data Service (ADDS)

Output produced by METARs form (0347 UTC 20 March 2019)
found at http://www.aviationweather.gov/metar/data/
 
Forecast for: VVCR (CAM RANH BAY , VN)
Text: TAF VVCR 192300Z 2000/2024 36005KT 9999 SCT015
Forecast period: 0000 to 0100 UTC 20 March 2019
Forecast type: FROM: standard forecast or significant change
Winds: from the N (360 degrees) at 6 MPH (5 knots; 2.6 m/s)
Visibility: 6 or more miles 10+ km)
Ceiling: at least 12,000 feet AGL
Clouds: scattered clouds at 1500 feet AGL
Weather: no significant weather forecast for this period
Text: BECMG 2001/2002 07010KT
Forecast period: 0100 UTC 20 March 2019 to 0000 UTC 21 March 2019
Forecast type: BECOMING: Conditions expected to become as follows by 0200 UTC 20 March 2019
Winds: from the ENE (70 degrees) at 12 MPH (10 knots; 5.1 m/s)
Visibility: 6 or more miles 10+ km)
Ceiling: at least 12,000 feet AGL
Clouds: scattered clouds at 1500 feet AGL
Weather: no significant weather forecast for this period